createdAt,value
2022-09-27T00:00:43.950Z,1.30
2022-09-27T00:03:31.311Z,1.90
2022-09-27T00:06:27.235Z,1.60
2022-09-27T00:09:14.565Z,1.40
2022-09-27T00:12:01.721Z,1.20
2022-09-27T00:14:48.802Z,1.40
2022-09-27T00:17:36.905Z,1.43
2022-09-27T00:20:23.885Z,1.50
2022-09-27T00:23:10.853Z,1.10
2022-09-27T00:25:59.239Z,1.30
2022-09-27T00:28:46.246Z,1.20
2022-09-27T00:31:34.072Z,1.30
2022-09-27T00:34:24.236Z,1.30
2022-09-27T00:37:11.621Z,1.10
2022-09-27T00:39:58.781Z,1.30
2022-09-27T00:42:45.891Z,0.90
2022-09-27T00:45:32.855Z,1.40
2022-09-27T00:48:27.271Z,1.40
2022-09-27T00:51:15.027Z,1.17
2022-09-27T00:54:02.491Z,1.50
2022-09-27T00:56:50.359Z,1.30
2022-09-27T00:59:46.676Z,1.20
2022-09-27T01:02:36.493Z,0.90
2022-09-27T01:05:27.643Z,1.30
2022-09-27T01:08:14.678Z,1.20
2022-09-27T01:11:13.168Z,1.10
2022-09-27T01:14:44.000Z,1.17
2022-09-27T01:17:55.820Z,1.47
2022-09-27T01:21:30.861Z,1.20
2022-09-27T01:24:44.425Z,1.03
2022-09-27T01:28:00.869Z,1.10
2022-09-27T01:30:53.611Z,1.30
2022-09-27T01:33:46.421Z,1.00
2022-09-27T01:36:45.580Z,1.20
2022-09-27T01:39:45.361Z,0.80
2022-09-27T01:43:13.536Z,1.20
2022-09-27T01:46:21.069Z,1.10
2022-09-27T01:49:45.566Z,1.00
2022-09-27T01:52:41.968Z,0.90
2022-09-27T01:55:34.126Z,1.20
2022-09-27T01:58:57.921Z,1.37
2022-09-27T02:01:51.073Z,1.10
2022-09-27T02:04:41.235Z,1.00
2022-09-27T02:07:39.976Z,1.10
2022-09-27T02:10:49.091Z,1.27
2022-09-27T02:13:58.078Z,1.10
2022-09-27T02:17:31.039Z,1.20
2022-09-27T02:20:30.621Z,1.33
2022-09-27T02:23:40.119Z,0.90
2022-09-27T02:26:38.392Z,1.20
2022-09-27T02:29:34.913Z,1.10
2022-09-27T02:32:21.987Z,1.53
2022-09-27T02:35:15.483Z,1.20
2022-09-27T02:38:04.453Z,1.20
2022-09-27T02:40:51.540Z,1.13
2022-09-27T02:43:38.817Z,1.20
2022-09-27T02:46:31.244Z,1.27
2022-09-27T02:50:00.071Z,1.30
2022-09-27T02:53:17.644Z,1.23
2022-09-27T02:56:48.872Z,1.00
2022-09-27T03:00:01.283Z,1.10
2022-09-27T03:03:09.676Z,0.80
2022-09-27T03:06:11.828Z,0.70
2022-09-27T03:08:58.796Z,0.70
2022-09-27T03:11:45.815Z,0.70
2022-09-27T03:14:32.884Z,0.80
2022-09-27T03:17:34.462Z,0.70
2022-09-27T03:20:21.406Z,0.70
2022-09-27T03:23:18.696Z,0.80
2022-09-27T03:26:09.580Z,0.70
2022-09-27T03:28:59.212Z,0.70
2022-09-27T03:31:46.220Z,0.67
2022-09-27T03:35:02.489Z,0.70
2022-09-27T03:37:49.576Z,0.63
2022-09-27T03:40:36.760Z,0.67
2022-09-27T03:43:25.867Z,0.60
2022-09-27T03:46:17.766Z,0.70
2022-09-27T03:49:04.834Z,0.70
2022-09-27T03:51:51.907Z,0.60
2022-09-27T03:54:38.881Z,0.50
2022-09-27T03:57:26.245Z,0.77
2022-09-27T04:00:13.866Z,0.70
2022-09-27T04:03:00.898Z,0.60
2022-09-27T04:05:48.025Z,0.60
2022-09-27T04:08:39.452Z,0.40
2022-09-27T04:11:27.011Z,0.80
2022-09-27T04:14:14.260Z,0.60
2022-09-27T04:17:21.204Z,0.60
2022-09-27T04:20:35.212Z,0.60
2022-09-27T04:23:30.210Z,0.53
2022-09-27T04:26:17.718Z,0.67
2022-09-27T04:29:18.170Z,0.60
2022-09-27T04:32:09.991Z,0.80
2022-09-27T04:35:35.574Z,0.63
2022-09-27T04:38:23.968Z,0.60
2022-09-27T04:41:11.175Z,0.70
2022-09-27T04:44:01.136Z,0.70
2022-09-27T04:46:48.100Z,0.63
2022-09-27T04:49:35.339Z,0.77
2022-09-27T04:52:22.341Z,0.73
2022-09-27T04:55:10.865Z,0.80
2022-09-27T04:57:57.910Z,0.70
2022-09-27T05:00:47.342Z,0.80
2022-09-27T05:03:57.125Z,0.57
2022-09-27T05:06:45.526Z,0.73
2022-09-27T05:09:45.186Z,0.60
2022-09-27T05:12:32.314Z,0.80
2022-09-27T05:15:21.751Z,0.53
2022-09-27T05:18:34.684Z,0.70
2022-09-27T05:21:40.316Z,0.60
2022-09-27T05:24:32.651Z,0.70
2022-09-27T05:27:20.485Z,0.70
2022-09-27T05:30:08.226Z,0.87
2022-09-27T05:33:02.563Z,0.80
2022-09-27T05:36:08.794Z,0.90
2022-09-27T05:38:56.161Z,0.60
2022-09-27T05:41:46.509Z,0.80
2022-09-27T05:44:34.764Z,0.70
2022-09-27T05:47:21.727Z,0.60
2022-09-27T05:50:09.604Z,0.77
2022-09-27T05:52:57.809Z,0.70
2022-09-27T05:55:44.836Z,0.70
2022-09-27T05:58:34.413Z,0.70
2022-09-27T06:01:32.307Z,0.60
2022-09-27T06:04:38.018Z,0.60
2022-09-27T06:08:00.722Z,0.50
2022-09-27T06:11:01.767Z,0.70
2022-09-27T06:13:48.729Z,0.60
2022-09-27T06:16:36.035Z,0.40
2022-09-27T06:19:23.229Z,0.50
2022-09-27T06:22:10.577Z,0.47
2022-09-27T06:25:05.020Z,0.40
2022-09-27T06:27:56.504Z,0.50
2022-09-27T06:30:49.468Z,0.57
2022-09-27T06:34:05.351Z,0.40
2022-09-27T06:36:52.999Z,0.40
2022-09-27T06:39:40.346Z,0.40
2022-09-27T06:43:03.492Z,0.50
2022-09-27T06:46:09.383Z,0.53
2022-09-27T06:49:29.339Z,0.50
2022-09-27T06:52:17.396Z,0.50
2022-09-27T06:55:05.429Z,0.40
2022-09-27T06:58:13.762Z,0.40
2022-09-27T07:01:07.517Z,0.40
2022-09-27T07:04:25.289Z,0.33
2022-09-27T07:07:30.901Z,0.30
2022-09-27T07:10:18.303Z,0.43
2022-09-27T07:13:08.028Z,0.50
2022-09-27T07:15:55.215Z,1.20
2022-09-27T07:18:42.575Z,0.60
2022-09-27T07:21:29.678Z,0.67
2022-09-27T07:24:16.660Z,0.40
2022-09-27T07:27:03.797Z,0.70
2022-09-27T07:29:51.195Z,0.53
2022-09-27T07:32:38.422Z,0.60
2022-09-27T07:35:28.532Z,0.50
2022-09-27T07:38:16.387Z,0.30
2022-09-27T07:41:08.746Z,0.40
2022-09-27T07:43:57.149Z,0.50
2022-09-27T07:46:44.963Z,0.50
2022-09-27T07:49:41.309Z,0.80
2022-09-27T07:52:54.634Z,0.90
2022-09-27T07:55:53.872Z,0.73
2022-09-27T07:58:44.357Z,0.90
2022-09-27T08:01:31.359Z,0.60
2022-09-27T08:04:18.808Z,0.80
2022-09-27T08:07:06.562Z,0.50
2022-09-27T08:09:54.069Z,0.60
2022-09-27T08:12:41.831Z,0.70
2022-09-27T08:15:29.477Z,0.70
2022-09-27T08:18:17.600Z,0.60
2022-09-27T08:21:13.529Z,0.60
2022-09-27T08:24:23.466Z,0.60
2022-09-27T08:27:28.801Z,0.50
2022-09-27T08:30:19.999Z,0.90
2022-09-27T08:33:07.012Z,0.90
2022-09-27T08:35:53.946Z,0.70
2022-09-27T08:38:40.913Z,0.60
2022-09-27T08:41:39.779Z,0.73
2022-09-27T08:44:46.057Z,0.97
2022-09-27T08:47:46.046Z,0.80
2022-09-27T08:50:40.086Z,0.73
2022-09-27T08:53:37.977Z,1.33
2022-09-27T08:56:26.366Z,0.90
2022-09-27T08:59:21.079Z,0.80
2022-09-27T09:02:21.463Z,0.60
2022-09-27T09:05:25.019Z,0.90
2022-09-27T09:08:51.226Z,0.70
2022-09-27T09:12:06.107Z,0.40
2022-09-27T09:14:53.038Z,0.70
2022-09-27T09:18:02.406Z,0.53
2022-09-27T09:21:20.230Z,0.60
2022-09-27T09:24:16.927Z,0.60
2022-09-27T09:27:12.989Z,0.50
2022-09-27T09:29:59.906Z,0.63
2022-09-27T09:33:10.895Z,0.70
2022-09-27T09:36:25.535Z,0.63
2022-09-27T09:39:20.008Z,0.73
2022-09-27T09:42:33.379Z,0.80
2022-09-27T09:45:33.882Z,0.90
2022-09-27T09:48:43.473Z,0.83
2022-09-27T09:51:47.892Z,3.10
2022-09-27T09:54:40.911Z,1.93
2022-09-27T09:57:33.845Z,2.00
2022-09-27T10:00:20.993Z,2.13
2022-09-27T10:03:11.721Z,1.83
2022-09-27T10:05:58.746Z,1.20
2022-09-27T10:08:45.982Z,3.27
2022-09-27T10:11:58.127Z,2.17
2022-09-27T10:14:51.829Z,1.80
2022-09-27T10:17:42.168Z,1.40
2022-09-27T10:20:47.091Z,1.23
2022-09-27T10:23:34.095Z,0.80
2022-09-27T10:26:49.525Z,0.77
2022-09-27T10:29:38.955Z,0.43
2022-09-27T10:32:39.591Z,0.53
2022-09-27T10:36:00.573Z,0.53
2022-09-27T10:38:56.783Z,0.80
2022-09-27T10:41:51.692Z,0.60
2022-09-27T10:45:31.491Z,0.67
2022-09-27T10:48:29.372Z,0.50
2022-09-27T10:51:33.760Z,0.70
2022-09-27T10:54:29.611Z,0.50
2022-09-27T10:57:21.755Z,1.00
2022-09-27T11:00:24.394Z,1.03
2022-09-27T11:03:16.420Z,0.50
2022-09-27T11:06:29.045Z,0.30
2022-09-27T11:09:18.858Z,0.33
2022-09-27T11:12:10.389Z,0.30
2022-09-27T11:15:02.299Z,0.40
2022-09-27T11:18:04.340Z,0.80
2022-09-27T11:20:56.469Z,0.90
2022-09-27T11:24:11.924Z,1.13
2022-09-27T11:27:02.591Z,0.50
2022-09-27T11:30:04.939Z,0.50
2022-09-27T11:33:52.429Z,0.40
2022-09-27T11:37:06.424Z,0.70
2022-09-27T11:40:09.801Z,0.80
2022-09-27T11:43:06.072Z,0.47
2022-09-27T11:46:26.186Z,0.43
2022-09-27T11:49:28.161Z,0.50
2022-09-27T11:52:44.398Z,0.40
2022-09-27T11:55:58.343Z,0.50
2022-09-27T11:59:04.902Z,0.23
2022-09-27T12:02:20.744Z,0.50
2022-09-27T12:05:20.560Z,0.70
2022-09-27T12:08:50.352Z,0.30
2022-09-27T12:11:52.242Z,0.40
2022-09-27T12:15:06.644Z,0.30
2022-09-27T12:18:14.287Z,0.30
2022-09-27T12:21:04.089Z,0.37
2022-09-27T12:24:00.347Z,0.40
2022-09-27T12:27:36.288Z,0.30
2022-09-27T12:30:23.815Z,0.33
2022-09-27T12:33:23.135Z,0.30
2022-09-27T12:36:17.228Z,0.20
2022-09-27T12:39:22.524Z,0.33
2022-09-27T12:42:21.343Z,0.40
2022-09-27T12:45:17.969Z,0.30
2022-09-27T12:48:11.535Z,0.40
2022-09-27T12:51:11.884Z,0.40
2022-09-27T12:54:33.322Z,0.40
2022-09-27T12:57:57.341Z,0.30
2022-09-27T13:00:57.297Z,0.40
2022-09-27T13:04:24.433Z,0.30
2022-09-27T13:07:34.922Z,0.27
2022-09-27T13:10:49.143Z,0.30
2022-09-27T13:13:55.978Z,0.40
2022-09-27T13:16:45.407Z,0.10
2022-09-27T13:19:42.431Z,0.10
2022-09-27T13:22:40.069Z,0.13
2022-09-27T13:25:58.068Z,0.40
2022-09-27T13:28:54.891Z,0.20
2022-09-27T13:31:55.117Z,0.27
2022-09-27T13:34:51.803Z,0.27
2022-09-27T13:37:50.601Z,0.20
2022-09-27T13:40:44.353Z,0.23
2022-09-27T13:43:57.798Z,0.50
2022-09-27T13:47:04.353Z,0.30
2022-09-27T13:49:56.009Z,0.40
2022-09-27T13:53:23.478Z,0.50
2022-09-27T13:56:36.158Z,0.30
2022-09-27T13:59:34.096Z,0.50
2022-09-27T14:03:02.617Z,0.50
2022-09-27T14:05:56.694Z,0.40
2022-09-27T14:08:49.628Z,0.60
2022-09-27T14:11:40.738Z,0.53
2022-09-27T14:14:30.632Z,0.33
2022-09-27T14:17:18.778Z,0.50
2022-09-27T14:20:08.410Z,0.40
2022-09-27T14:22:55.501Z,0.40
2022-09-27T14:25:51.766Z,0.40
2022-09-27T14:28:42.840Z,0.50
2022-09-27T14:31:36.711Z,0.60
2022-09-27T14:34:40.555Z,0.40
2022-09-27T14:37:29.645Z,0.40
2022-09-27T14:40:23.644Z,0.40
2022-09-27T14:43:19.917Z,0.50
2022-09-27T14:46:07.717Z,0.50
2022-09-27T14:48:55.762Z,0.53
2022-09-27T14:51:43.434Z,0.40
2022-09-27T14:54:33.228Z,0.40
2022-09-27T14:57:20.202Z,0.47
2022-09-27T15:00:32.163Z,0.37
2022-09-27T15:03:44.235Z,0.33
2022-09-27T15:06:32.034Z,0.47
2022-09-27T15:09:20.047Z,0.50
2022-09-27T15:12:08.567Z,0.40
2022-09-27T15:14:58.146Z,0.53
2022-09-27T15:17:46.298Z,0.50
2022-09-27T15:20:35.667Z,0.50
2022-09-27T15:23:28.415Z,0.50
2022-09-27T15:26:23.882Z,0.40
2022-09-27T15:29:25.811Z,0.50
2022-09-27T15:32:17.665Z,0.47
2022-09-27T15:35:08.774Z,0.30
2022-09-27T15:38:25.298Z,0.73
2022-09-27T15:41:21.148Z,0.97
2022-09-27T15:44:36.220Z,0.80
2022-09-27T15:47:32.385Z,0.60
2022-09-27T15:50:25.530Z,0.70
2022-09-27T15:53:13.254Z,0.90
2022-09-27T15:56:01.642Z,1.00
2022-09-27T15:58:48.649Z,0.83
2022-09-27T16:01:35.653Z,0.70
2022-09-27T16:04:22.781Z,0.67
2022-09-27T16:07:10.993Z,0.70
2022-09-27T16:09:57.951Z,0.50
2022-09-27T16:12:45.214Z,0.50
2022-09-27T16:15:32.435Z,0.40
2022-09-27T16:18:19.439Z,0.40
2022-09-27T16:21:06.596Z,0.30
2022-09-27T16:23:53.688Z,0.50
2022-09-27T16:26:40.666Z,0.40
2022-09-27T16:29:27.624Z,0.50
2022-09-27T16:32:14.601Z,0.40
2022-09-27T16:35:02.804Z,0.40
2022-09-27T16:37:50.004Z,0.60
2022-09-27T16:40:38.033Z,0.50
2022-09-27T16:43:27.322Z,0.30
2022-09-27T16:46:18.761Z,0.43
2022-09-27T16:49:25.748Z,0.50
2022-09-27T16:52:12.694Z,0.50
2022-09-27T16:55:00.556Z,0.50
2022-09-27T16:57:48.310Z,0.70
2022-09-27T17:00:35.556Z,0.50
2022-09-27T17:03:23.004Z,0.60
2022-09-27T17:06:10.003Z,0.50
2022-09-27T17:08:57.023Z,0.60
2022-09-27T17:11:44.012Z,0.50
2022-09-27T17:14:32.240Z,0.63
2022-09-27T17:17:19.172Z,0.73
2022-09-27T17:20:06.957Z,0.80
2022-09-27T17:22:53.896Z,0.80
2022-09-27T17:25:41.756Z,0.43
2022-09-27T17:28:29.465Z,0.53
2022-09-27T17:31:18.755Z,0.50
2022-09-27T17:34:12.016Z,0.40
2022-09-27T17:37:00.781Z,0.40
2022-09-27T17:39:47.801Z,0.50
2022-09-27T17:42:37.049Z,0.30
2022-09-27T17:45:23.981Z,0.60
2022-09-27T17:48:29.538Z,0.70
2022-09-27T17:51:16.702Z,0.70
2022-09-27T17:54:04.865Z,0.47
2022-09-27T17:56:51.809Z,0.63
2022-09-27T17:59:39.285Z,0.60
2022-09-27T18:02:26.588Z,0.70
2022-09-27T18:05:13.714Z,0.70
2022-09-27T18:08:01.013Z,0.50
2022-09-27T18:10:48.251Z,0.60
2022-09-27T18:13:40.482Z,0.80
2022-09-27T18:16:30.917Z,0.70
2022-09-27T18:19:18.041Z,0.60
2022-09-27T18:22:05.116Z,0.60
2022-09-27T18:24:52.193Z,0.60
2022-09-27T18:27:40.337Z,0.70
2022-09-27T18:30:27.293Z,0.50
2022-09-27T18:33:14.349Z,0.73
2022-09-27T18:36:06.817Z,0.60
2022-09-27T18:38:57.037Z,0.63
2022-09-27T18:41:45.274Z,0.60
2022-09-27T18:44:32.973Z,0.70
2022-09-27T18:47:20.024Z,0.70
2022-09-27T18:50:07.296Z,0.80
2022-09-27T18:52:54.381Z,0.60
2022-09-27T18:55:41.560Z,0.93
2022-09-27T18:58:28.541Z,0.77
2022-09-27T19:01:16.404Z,0.70
2022-09-27T19:04:03.483Z,0.70
2022-09-27T19:06:51.572Z,0.80
2022-09-27T19:09:38.501Z,0.73
2022-09-27T19:12:26.384Z,0.70
2022-09-27T19:15:13.518Z,0.87
2022-09-27T19:18:01.113Z,0.80
2022-09-27T19:20:48.211Z,0.80
2022-09-27T19:23:35.968Z,0.80
2022-09-27T19:26:26.118Z,0.60
2022-09-27T19:29:14.671Z,0.70
2022-09-27T19:32:01.975Z,0.67
2022-09-27T19:34:48.894Z,0.70
2022-09-27T19:37:35.840Z,0.70
2022-09-27T19:40:22.849Z,0.90
2022-09-27T19:43:10.163Z,0.70
2022-09-27T19:46:06.250Z,0.80
2022-09-27T19:48:54.198Z,0.77
2022-09-27T19:51:41.238Z,0.70
2022-09-27T19:54:28.212Z,0.67
2022-09-27T19:57:15.196Z,0.60
2022-09-27T20:00:02.228Z,0.60
2022-09-27T20:02:51.863Z,0.60
2022-09-27T20:05:38.890Z,0.47
2022-09-27T20:08:27.178Z,0.50
2022-09-27T20:11:19.179Z,0.60
2022-09-27T20:14:06.238Z,0.50
2022-09-27T20:16:54.354Z,0.50
2022-09-27T20:19:41.280Z,0.63
2022-09-27T20:22:28.258Z,0.63
2022-09-27T20:25:15.218Z,0.70
2022-09-27T20:28:02.768Z,0.73
2022-09-27T20:31:00.751Z,0.50
2022-09-27T20:33:50.756Z,0.60
2022-09-27T20:36:40.323Z,0.40
2022-09-27T20:39:27.263Z,0.50
2022-09-27T20:42:14.447Z,0.60
2022-09-27T20:45:01.378Z,0.70
2022-09-27T20:47:48.330Z,0.70
2022-09-27T20:50:35.313Z,0.60
2022-09-27T20:53:22.254Z,0.70
2022-09-27T20:56:27.242Z,0.50
2022-09-27T20:59:19.987Z,0.50
2022-09-27T21:02:08.187Z,0.70
2022-09-27T21:04:55.166Z,0.70
2022-09-27T21:07:42.240Z,0.60
2022-09-27T21:10:29.193Z,0.50
2022-09-27T21:13:17.012Z,0.50
2022-09-27T21:16:06.114Z,0.80
2022-09-27T21:18:55.223Z,0.40
2022-09-27T21:21:42.272Z,0.60
2022-09-27T21:24:29.206Z,0.47
2022-09-27T21:27:16.160Z,0.50
2022-09-27T21:30:05.224Z,0.60
2022-09-27T21:32:56.124Z,0.30
2022-09-27T21:35:49.638Z,0.50
2022-09-27T21:38:37.671Z,0.50
2022-09-27T21:41:25.651Z,0.53
2022-09-27T21:44:13.303Z,0.40
2022-09-27T21:47:00.342Z,0.43
2022-09-27T21:49:47.310Z,0.50
2022-09-27T21:52:34.271Z,0.70
2022-09-27T21:55:21.187Z,0.50
2022-09-27T21:58:08.147Z,0.60
2022-09-27T22:00:55.390Z,0.50
2022-09-27T22:03:43.502Z,0.53
2022-09-27T22:06:33.296Z,0.60
2022-09-27T22:09:20.519Z,0.50
2022-09-27T22:12:07.479Z,0.60
2022-09-27T22:14:54.430Z,0.60
2022-09-27T22:17:41.451Z,0.60
2022-09-27T22:20:28.547Z,0.50
2022-09-27T22:23:15.500Z,0.67
2022-09-27T22:26:23.859Z,0.30
2022-09-27T22:29:11.061Z,0.60
2022-09-27T22:31:58.000Z,0.70
2022-09-27T22:34:45.024Z,0.60
2022-09-27T22:37:32.916Z,0.70
2022-09-27T22:40:19.937Z,0.50
2022-09-27T22:43:07.545Z,0.50
2022-09-27T22:45:54.924Z,0.43
2022-09-27T22:48:42.524Z,0.60
2022-09-27T22:51:29.734Z,0.47
2022-09-27T22:54:16.683Z,0.40
2022-09-27T22:57:03.956Z,0.50
2022-09-27T22:59:50.912Z,0.40
2022-09-27T23:02:38.046Z,0.53
2022-09-27T23:05:25.328Z,0.60
2022-09-27T23:08:12.530Z,0.50
2022-09-27T23:11:04.957Z,0.57
2022-09-27T23:13:52.295Z,0.40
2022-09-27T23:16:39.424Z,0.50
2022-09-27T23:19:26.903Z,0.50
2022-09-27T23:22:13.887Z,0.50
2022-09-27T23:25:01.034Z,0.50
2022-09-27T23:27:52.733Z,0.53
2022-09-27T23:30:39.682Z,0.50
2022-09-27T23:33:27.003Z,0.50
2022-09-27T23:36:17.137Z,0.60
2022-09-27T23:39:04.199Z,0.50
2022-09-27T23:41:51.234Z,0.50
2022-09-27T23:44:38.192Z,0.60
2022-09-27T23:47:25.183Z,0.70
2022-09-27T23:50:12.131Z,0.63
2022-09-27T23:52:59.531Z,0.40
2022-09-27T23:55:47.057Z,0.53
2022-09-27T23:58:39.390Z,0.53
